Time;durP1;ratioP1;P1;durP2;ratioP2;P2;SDS_P1;SDS_P2;PMS_P1;PMS_P2;Temp;Humidity;BMP_temperature;BMP_pressure;BME280_temperature;BME280_humidity;BME280_pressure;Samples;Min_cycle;Max_cycle;Signal;HPM_P1;HPM_P2
2023/01/11 00:01:42;;;;;;;;;0.33;0.33;;;;;12.67;83.69;100812.63;5056848;28;45320;-72
2023/01/11 00:04:07;;;;;;;;;3.00;2.00;;;;;12.72;83.64;100831.66;5057071;28;45316;-72
2023/01/11 00:06:32;;;;;;;;;1.00;1.00;;;;;12.58;83.73;100803.69;5059166;28;46033;-74
2023/01/11 00:08:58;;;;;;;;;2.67;1.00;;;;;12.01;83.71;100714.44;5061890;28;45324;-73
2023/01/11 00:11:23;;;;;;;;;1.00;1.00;;;;;12.47;84.03;100791.47;5060357;28;45380;-71
2023/01/11 00:13:49;;;;;;;;;1.75;1.75;;;;;12.68;84.42;100820.47;5060386;28;45385;-76
2023/01/11 00:16:15;;;;;;;;;2.00;2.00;;;;;12.74;84.59;100830.50;5044278;28;47678;-73
2023/01/11 00:18:41;;;;;;;;;1.00;1.00;;;;;11.65;84.68;100649.69;5060116;28;45555;-74
2023/01/11 00:21:07;;;;;;;;;2.33;1.33;;;;;12.45;85.07;100782.78;5060011;28;45342;-72
2023/01/11 00:23:37;;;;;;;;;0.67;0.67;;;;;12.49;85.58;100792.16;5058927;28;45384;-73
2023/01/11 00:26:04;;;;;;;;;1.00;1.00;;;;;12.73;85.69;100823.50;5058526;28;47096;-72
2023/01/11 00:28:30;;;;;;;;;3.67;2.33;;;;;12.58;86.11;100797.53;5059556;28;45482;-73
2023/01/11 00:30:56;;;;;;;;;3.00;1.00;;;;;12.71;85.92;100819.31;5059880;28;45309;-73
2023/01/11 00:33:21;;;;;;;;;0.00;0.00;;;;;12.44;85.82;100769.63;5060387;28;45319;-75
2023/01/11 00:35:50;;;;;;;;;3.00;1.67;;;;;12.47;85.93;100780.81;5059628;28;47249;-72
2023/01/11 00:38:42;;;;;;;;;1.00;1.00;;;;;12.70;85.73;100833.63;5058238;28;45249;-72
2023/01/11 00:47:55;;;;;;;;;1.00;1.00;;;;;12.10;85.77;100709.03;5059561;28;45379;-74
2023/01/11 00:49:14;;;;;;;;;1.00;1.00;;;;;12.68;86.21;100806.28;5060037;28;45229;-72
2023/01/11 00:51:39;;;;;;;;;1.00;1.00;;;;;12.38;86.70;100752.38;5059997;28;45343;-73
2023/01/11 00:54:04;;;;;;;;;1.00;1.00;;;;;12.07;86.71;100695.19;5058317;28;45492;-72
2023/01/11 00:56:30;;;;;;;;;2.00;2.00;;;;;12.68;86.64;100800.94;5059287;28;45570;-73
2023/01/11 00:58:55;;;;;;;;;1.00;1.00;;;;;12.66;87.79;100800.28;5059502;28;45478;-72
2023/01/11 01:01:20;;;;;;;;;2.00;0.67;;;;;12.60;87.50;100791.03;5059515;28;45437;-73
2023/01/11 01:03:46;;;;;;;;;1.25;1.25;;;;;11.57;87.18;100637.13;5059519;28;45579;-72
2023/01/11 01:06:11;;;;;;;;;1.00;1.00;;;;;12.61;87.82;100776.72;5059366;28;56020;-73
2023/01/11 01:08:36;;;;;;;;;1.00;1.00;;;;;12.61;87.96;100802.56;5059417;28;45268;-74
2023/01/11 01:11:02;;;;;;;;;2.00;1.00;;;;;11.86;87.63;100664.41;5059202;28;45458;-72
2023/01/11 01:16:10;;;;;;;;;0.00;0.00;;;;;12.59;88.46;100788.53;5058413;28;45467;-73
2023/01/11 01:18:36;;;;;;;;;0.00;0.00;;;;;12.22;88.35;100732.78;5058465;28;50682;-73
2023/01/11 01:21:01;;;;;;;;;1.00;1.00;;;;;12.21;88.37;100729.25;5040857;28;45372;-74
2023/01/11 01:23:26;;;;;;;;;1.00;1.00;;;;;12.47;88.88;100770.13;5059465;28;45506;-73
2023/01/11 01:25:52;;;;;;;;;0.00;0.00;;;;;11.81;88.66;100658.69;5056877;28;58857;-73
2023/01/11 01:28:20;;;;;;;;;0.50;0.50;;;;;12.55;88.38;100781.84;5040647;28;45435;-72
2023/01/11 01:30:50;;;;;;;;;1.25;1.25;;;;;12.24;88.75;100714.81;5058753;28;45409;-74
2023/01/11 01:33:15;;;;;;;;;1.00;1.00;;;;;12.11;88.67;100693.88;5058950;28;45218;-73
2023/01/11 01:35:41;;;;;;;;;0.75;0.75;;;;;12.59;88.93;100761.88;5040251;28;47519;-73
2023/01/11 01:38:06;;;;;;;;;1.00;1.00;;;;;11.59;88.86;100595.19;5058501;28;45424;-72
2023/01/11 01:40:31;;;;;;;;;0.25;0.25;;;;;12.33;88.89;100713.88;5059070;28;45350;-73
2023/01/11 01:42:57;;;;;;;;;0.00;0.00;;;;;12.54;88.72;100740.16;5058892;28;45491;-73
2023/01/11 01:45:26;;;;;;;;;0.00;0.00;;;;;12.56;89.03;100747.00;5059071;28;46506;-73
2023/01/11 01:48:00;;;;;;;;;0.00;0.00;;;;;12.05;89.47;100667.88;5060297;28;45389;-72
2023/01/11 01:50:36;;;;;;;;;2.00;0.50;;;;;12.39;89.87;100732.72;5040718;28;45514;-73
2023/01/11 01:53:12;;;;;;;;;0.00;0.00;;;;;12.23;89.69;100692.66;5058608;28;45474;-73
2023/01/11 01:55:41;;;;;;;;;0.25;0.25;;;;;12.53;89.87;100747.34;5058482;28;46609;-73
2023/01/11 01:58:12;;;;;;;;;0.00;0.00;;;;;12.53;89.62;100757.16;5058625;28;45405;-73
2023/01/11 02:00:41;;;;;;;;;1.00;0.00;;;;;12.05;89.78;100667.88;5058530;28;45472;-72
2023/01/11 02:03:10;;;;;;;;;0.00;0.00;;;;;12.28;89.82;100705.50;5058621;28;45182;-74
2023/01/11 02:05:35;;;;;;;;;0.00;0.00;;;;;12.37;89.50;100724.06;5058032;28;45642;-73
2023/01/11 02:08:09;;;;;;;;;0.00;0.00;;;;;11.97;89.88;100649.13;5058059;28;45525;-73
2023/01/11 02:10:35;;;;;;;;;0.25;0.25;;;;;12.55;89.31;100752.50;5058167;28;45573;-74
2023/01/11 02:13:06;;;;;;;;;1.00;1.00;;;;;12.54;89.54;100753.50;5040237;28;45563;-72
2023/01/11 02:15:31;;;;;;;;;0.00;0.00;;;;;12.57;89.50;100763.84;5058055;28;45801;-73
2023/01/11 02:17:57;;;;;;;;;1.00;0.00;;;;;12.59;89.70;100764.53;5040270;28;45960;-74
2023/01/11 02:20:45;;;;;;;;;0.00;0.00;;;;;12.60;89.31;100752.88;5060929;28;45264;-72
2023/01/11 02:23:16;;;;;;;;;1.50;1.00;;;;;12.64;88.68;100768.44;5059887;28;45483;-73
2023/01/11 02:26:12;;;;;;;;;0.00;0.00;;;;;12.66;88.71;100752.25;5040056;28;46385;-72
2023/01/11 02:28:52;;;;;;;;;0.00;0.00;;;;;12.63;88.51;100758.75;5057356;28;45507;-72
2023/01/11 02:31:18;;;;;;;;;0.00;0.00;;;;;12.65;88.62;100742.59;5039675;28;45281;-73
2023/01/11 02:34:09;;;;;;;;;0.00;0.00;;;;;12.63;88.55;100761.41;5058103;28;45459;-73
2023/01/11 02:36:53;;;;;;;;;0.00;0.00;;;;;12.63;88.30;100740.09;5057616;28;46235;-73
2023/01/11 02:39:29;;;;;;;;;0.00;0.00;;;;;12.55;88.47;100739.19;5057431;28;45320;-74
2023/01/11 02:45:14;;;;;;;;;0.00;0.00;;;;;12.58;88.29;100722.84;5057861;28;45175;-72
2023/01/11 02:47:54;;;;;;;;;0.00;0.00;;;;;12.59;87.75;100727.19;5057059;28;45724;-73
2023/01/11 02:50:57;;;;;;;;;0.00;0.00;;;;;12.28;88.09;100657.53;5039291;28;45435;-72
2023/01/11 02:53:43;;;;;;;;;0.00;0.00;;;;;12.71;88.02;100731.28;5057592;28;45483;-71
2023/01/11 02:56:12;;;;;;;;;0.00;0.00;;;;;12.58;87.72;100702.34;5057387;28;45364;-72
2023/01/11 02:58:42;;;;;;;;;0.00;0.00;;;;;12.73;88.19;100738.13;5039206;28;47809;-74
2023/01/11 03:01:08;;;;;;;;;0.00;0.00;;;;;12.47;87.92;100695.47;5057529;28;45437;-71
2023/01/11 03:03:34;;;;;;;;;0.00;0.00;;;;;12.80;87.91;100739.16;5057598;28;45415;-73
2023/01/11 03:06:19;;;;;;;;;0.00;0.00;;;;;12.58;87.46;100697.03;5057526;28;45471;-73
2023/01/11 03:08:53;;;;;;;;;0.00;0.00;;;;;12.83;87.46;100735.34;5057411;28;45579;-71
2023/01/11 03:15:03;;;;;;;;;0.00;0.00;;;;;12.85;87.02;100722.69;5057494;28;45222;-72
2023/01/11 03:18:05;;;;;;;;;0.00;0.00;;;;;12.85;87.23;100729.88;5051689;28;45878;-73
2023/01/11 03:20:39;;;;;;;;;0.00;0.00;;;;;12.85;86.95;100720.03;5055524;28;48203;-72
2023/01/11 03:23:37;;;;;;;;;0.00;0.00;;;;;12.52;86.97;100665.66;5055707;28;45484;-72
2023/01/11 03:26:15;;;;;;;;;0.00;0.00;;;;;12.53;86.90;100659.34;5056299;28;45483;-74
2023/01/11 03:28:52;;;;;;;;;1.00;0.00;;;;;12.87;86.85;100723.38;5060933;28;45481;-72
2023/01/11 03:31:43;;;;;;;;;0.00;0.00;;;;;12.37;86.99;100645.91;5056982;28;46358;-72
2023/01/11 03:34:17;;;;;;;;;0.00;0.00;;;;;12.23;87.10;100623.34;5056752;28;45363;-72
2023/01/11 03:36:57;;;;;;;;;0.00;0.00;;;;;12.94;87.54;100726.22;5057131;28;45358;-73
2023/01/11 03:39:33;;;;;;;;;1.00;0.00;;;;;12.87;88.23;100739.38;5057410;28;45462;-72
2023/01/11 03:42:01;;;;;;;;;0.00;0.00;;;;;12.71;88.15;100712.59;5056803;28;48172;-73
2023/01/11 03:44:33;;;;;;;;;0.00;0.00;;;;;12.55;88.53;100683.16;5060440;28;45264;-74
2023/01/11 03:47:06;;;;;;;;;0.00;0.00;;;;;12.82;88.74;100741.69;5058980;28;45387;-71
2023/01/11 03:49:52;;;;;;;;;0.25;0.00;;;;;12.86;89.13;100743.03;5060827;28;45406;-72
2023/01/11 03:52:24;;;;;;;;;0.00;0.00;;;;;12.86;89.37;100748.38;5060046;28;46381;-71
2023/01/11 03:54:51;;;;;;;;;0.00;0.00;;;;;12.51;89.15;100695.16;5060263;28;45554;-72
2023/01/11 03:57:23;;;;;;;;;0.00;0.00;;;;;12.85;89.05;100740.53;5060319;28;45445;-73
2023/01/11 03:59:49;;;;;;;;;0.00;0.00;;;;;12.89;88.67;100744.56;5060295;28;45671;-71
2023/01/11 04:02:23;;;;;;;;;0.00;0.00;;;;;12.95;88.84;100749.25;5059963;28;46550;-71
2023/01/11 04:04:49;;;;;;;;;0.00;0.00;;;;;12.94;88.76;100748.41;5060059;28;45399;-74
2023/01/11 04:07:14;;;;;;;;;0.00;0.00;;;;;12.60;88.60;100686.19;5060307;28;45363;-73
2023/01/11 04:09:40;;;;;;;;;0.00;0.00;;;;;12.77;88.83;100725.31;5059036;28;45527;-72
2023/01/11 04:12:06;;;;;;;;;0.00;0.00;;;;;12.68;88.65;100707.59;5060028;28;45822;-72
2023/01/11 04:14:31;;;;;;;;;0.00;0.00;;;;;12.56;88.61;100696.34;5060087;28;45360;-73
2023/01/11 04:16:56;;;;;;;;;0.00;0.00;;;;;12.09;88.36;100615.94;5060106;28;45546;-72
2023/01/11 04:19:22;;;;;;;;;0.00;0.00;;;;;12.93;88.61;100759.25;5060683;28;45309;-72
2023/01/11 04:21:47;;;;;;;;;0.00;0.00;;;;;12.90;87.91;100752.41;5059784;28;47057;-71
2023/01/11 04:24:13;;;;;;;;;0.00;0.00;;;;;12.88;88.44;100750.88;5041569;28;45510;-71
2023/01/11 04:26:38;;;;;;;;;0.00;0.00;;;;;12.64;88.32;100706.25;5041666;28;45356;-72
2023/01/11 04:29:04;;;;;;;;;0.00;0.00;;;;;12.93;88.23;100753.91;5060148;28;45597;-73
2023/01/11 04:31:30;;;;;;;;;0.00;0.00;;;;;12.67;88.39;100706.75;5059558;28;46037;-71
2023/01/11 04:33:55;;;;;;;;;0.00;0.00;;;;;11.63;88.11;100542.50;5059666;28;45270;-70
2023/01/11 04:36:20;;;;;;;;;0.00;0.00;;;;;12.95;87.88;100763.44;5059807;28;45518;-71
2023/01/11 04:38:46;;;;;;;;;0.00;0.00;;;;;12.97;88.16;100766.75;5041807;28;45290;-73
2023/01/11 04:43:55;;;;;;;;;0.00;0.00;;;;;12.83;88.10;100746.03;5059598;28;45364;-71
2023/01/11 04:46:22;;;;;;;;;0.00;0.00;;;;;12.86;88.15;100764.38;5059556;28;45508;-73
2023/01/11 04:48:47;;;;;;;;;0.00;0.00;;;;;12.96;87.77;100783.78;5059791;28;45253;-72
2023/01/11 04:51:13;;;;;;;;;0.00;0.00;;;;;12.68;87.70;100729.78;5041690;28;47909;-72
2023/01/11 04:53:38;;;;;;;;;0.00;0.00;;;;;13.02;87.24;100795.66;5060512;28;45472;-70
2023/01/11 04:56:05;;;;;;;;;0.00;0.00;;;;;13.05;86.61;100795.34;5061016;28;45316;-74
2023/01/11 04:58:32;;;;;;;;;0.00;0.00;;;;;13.02;86.47;100785.84;5041673;28;45364;-73
2023/01/11 05:00:57;;;;;;;;;0.00;0.00;;;;;13.01;86.05;100800.19;5041534;28;46229;-71
2023/01/11 05:03:23;;;;;;;;;0.00;0.00;;;;;12.34;85.19;100692.38;5041069;28;45939;-72
2023/01/11 05:05:59;;;;;;;;;0.00;0.00;;;;;13.12;84.71;100815.06;5059234;28;45209;-71
2023/01/11 05:08:26;;;;;;;;;0.00;0.00;;;;;12.27;83.90;100693.19;5044938;28;45320;-72
2023/01/11 05:10:56;;;;;;;;;0.00;0.00;;;;;12.85;83.79;100775.22;5060208;28;45821;-71
2023/01/11 05:13:40;;;;;;;;;0.00;0.00;;;;;13.06;83.54;100832.56;5059098;28;45471;-73
2023/01/11 05:16:26;;;;;;;;;0.00;0.00;;;;;13.17;83.39;100846.63;5058975;28;45326;-72
2023/01/11 05:18:54;;;;;;;;;0.00;0.00;;;;;12.89;82.65;100806.75;5058453;28;45574;-72
2023/01/11 05:21:22;;;;;;;;;0.00;0.00;;;;;13.05;82.89;100828.22;5058642;28;46938;-71
2023/01/11 05:23:49;;;;;;;;;0.00;0.00;;;;;13.20;82.51;100857.00;5058840;28;45450;-71
2023/01/11 05:26:23;;;;;;;;;0.00;0.00;;;;;13.08;82.01;100838.56;5058595;28;45425;-72
2023/01/11 05:28:50;;;;;;;;;0.50;0.00;;;;;13.22;82.23;100869.22;5040776;28;45554;-73
2023/01/11 05:31:15;;;;;;;;;1.00;0.50;;;;;13.14;80.05;100868.28;5058613;28;46800;-73
2023/01/11 05:33:41;;;;;;;;;0.00;0.00;;;;;13.10;80.52;100873.94;5040844;28;46186;-71
2023/01/11 05:36:11;;;;;;;;;0.00;0.00;;;;;12.83;79.08;100850.09;5058689;28;45483;-71
2023/01/11 05:38:36;;;;;;;;;0.25;0.00;;;;;13.01;79.26;100895.38;5057402;28;45508;-71
2023/01/11 05:41:05;;;;;;;;;1.75;1.75;;;;;13.02;79.54;100897.94;5058364;28;45643;-72
2023/01/11 05:43:31;;;;;;;;;0.00;0.00;;;;;12.99;78.76;100903.56;5058597;28;45463;-73
2023/01/11 05:45:58;;;;;;;;;1.25;1.25;;;;;12.84;78.27;100897.13;5058474;28;45375;-72
2023/01/11 05:48:24;;;;;;;;;0.00;0.00;;;;;12.74;77.86;100885.69;5057579;28;45275;-72
2023/01/11 05:50:54;;;;;;;;;1.75;0.75;;;;;12.94;78.41;100927.19;5058084;28;45400;-72
2023/01/11 05:53:20;;;;;;;;;1.00;1.00;;;;;12.89;78.21;100918.84;5040032;28;45649;-74
2023/01/11 05:55:52;;;;;;;;;0.50;0.00;;;;;12.88;78.13;100917.16;5040139;28;45372;-73
2023/01/11 05:58:18;;;;;;;;;0.00;0.00;;;;;12.73;78.13;100886.69;5058750;28;45332;-72
2023/01/11 06:00:47;;;;;;;;;0.00;0.00;;;;;12.93;78.39;100911.34;5039788;28;46190;-73
2023/01/11 06:03:12;;;;;;;;;1.00;1.00;;;;;12.91;78.21;100921.34;5058250;28;45459;-71
2023/01/11 06:05:37;;;;;;;;;2.00;2.00;;;;;12.47;77.51;100855.47;5057298;28;45264;-71
2023/01/11 06:08:03;;;;;;;;;2.25;0.75;;;;;12.82;77.53;100920.44;5039973;28;45256;-71
2023/01/11 06:10:28;;;;;;;;;1.50;0.00;;;;;12.88;77.70;100937.66;5058102;28;46319;-72
2023/01/11 06:13:25;;;;;;;;;1.00;1.00;;;;;12.84;77.69;100946.97;5058069;28;45182;-73
2023/01/11 06:15:39;;;;;;;;;2.00;1.00;;;;;12.88;77.46;100949.19;5057701;28;45472;-75
2023/01/11 06:18:04;;;;;;;;;3.00;2.00;;;;;12.84;77.13;100942.47;5058305;28;45298;-74
2023/01/11 06:20:30;;;;;;;;;3.75;2.00;;;;;12.81;76.79;100953.44;5057548;28;46181;-73
2023/01/11 06:22:55;;;;;;;;;4.00;2.75;;;;;12.82;77.17;100960.47;5057934;28;45270;-72
2023/01/11 06:25:20;;;;;;;;;2.00;1.00;;;;;12.40;76.68;100901.53;5057886;28;45423;-73
2023/01/11 06:27:45;;;;;;;;;4.75;2.25;;;;;12.76;76.97;100961.06;5058095;28;45428;-73
2023/01/11 06:30:11;;;;;;;;;3.00;2.50;;;;;12.74;76.78;100963.06;5039546;28;47690;-73
2023/01/11 06:32:37;;;;;;;;;2.00;0.00;;;;;12.43;76.23;100918.09;5057793;28;45179;-74
2023/01/11 06:35:05;;;;;;;;;3.25;2.25;;;;;12.70;76.64;100980.34;5057728;28;45557;-76
2023/01/11 06:37:31;;;;;;;;;3.75;2.00;;;;;12.60;76.35;100963.56;5072689;28;45434;-73
2023/01/11 06:39:56;;;;;;;;;2.00;2.00;;;;;12.52;76.27;100940.34;5039336;28;48525;-72
2023/01/11 06:42:21;;;;;;;;;2.00;2.00;;;;;12.72;76.94;100991.72;5058496;28;45442;-71
2023/01/11 06:44:47;;;;;;;;;3.00;2.00;;;;;12.61;76.63;100973.25;5068402;28;53919;-73
2023/01/11 06:47:12;;;;;;;;;4.00;3.00;;;;;12.48;77.03;100953.16;5062122;28;45542;-72
2023/01/11 06:49:37;;;;;;;;;4.75;2.00;;;;;12.75;76.92;101012.75;5077655;28;46421;-71
2023/01/11 06:52:03;;;;;;;;;5.50;3.00;;;;;11.59;76.57;100810.88;5058553;28;47805;-73
2023/01/11 06:54:28;;;;;;;;;11.67;6.67;;;;;12.67;76.89;100999.34;5072964;28;45261;-72
2023/01/11 06:56:53;;;;;;;;;3.67;3.67;;;;;12.60;77.64;100983.06;5071888;28;45309;-74
2023/01/11 06:59:19;;;;;;;;;1.75;0.25;;;;;12.60;77.22;101000.91;5077558;28;46791;-73
2023/01/11 07:01:44;;;;;;;;;2.00;2.00;;;;;12.44;77.32;101004.25;5075796;28;45354;-72
2023/01/11 07:04:09;;;;;;;;;4.75;3.00;;;;;12.36;77.69;100970.34;5077323;28;45415;-71
2023/01/11 07:06:35;;;;;;;;;3.00;3.00;;;;;10.50;77.62;100657.38;5077591;28;45508;-73
2023/01/11 07:09:00;;;;;;;;;3.67;2.00;;;;;12.60;77.81;101020.41;5040362;28;47674;-73
2023/01/11 07:11:26;;;;;;;;;4.25;3.00;;;;;12.59;77.76;101018.75;5042772;28;45495;-72
2023/01/11 07:13:51;;;;;;;;;5.25;3.75;;;;;12.55;77.92;101013.88;5040154;28;45416;-72
2023/01/11 07:16:17;;;;;;;;;4.25;1.75;;;;;12.42;77.83;101007.09;5052128;28;45398;-71
2023/01/11 07:18:43;;;;;;;;;1.00;1.00;;;;;12.45;77.94;100997.94;5037038;28;46615;-75
2023/01/11 07:21:08;;;;;;;;;16.67;14.33;;;;;11.97;77.96;100929.75;5047994;28;45525;-73
2023/01/11 07:23:34;;;;;;;;;2.00;2.00;;;;;12.42;78.10;100991.09;5038158;28;45298;-74
2023/01/11 07:25:59;;;;;;;;;2.25;2.25;;;;;12.39;78.08;101002.03;5038818;28;45309;-74
2023/01/11 07:28:27;;;;;;;;;2.00;2.00;;;;;12.45;77.88;101022.78;5035846;28;47849;-72
2023/01/11 07:30:53;;;;;;;;;2.00;2.00;;;;;12.41;77.90;101020.53;5036644;28;45656;-73
2023/01/11 07:33:18;;;;;;;;;2.00;2.00;;;;;12.10;77.64;100986.19;5037022;28;45305;-74
2023/01/11 07:35:43;;;;;;;;;1.75;1.75;;;;;11.85;77.78;100944.25;5037050;28;45473;-73
2023/01/11 07:38:10;;;;;;;;;3.25;2.00;;;;;12.39;77.71;101044.69;5036908;28;47748;-74
2023/01/11 07:40:36;;;;;;;;;4.00;2.00;;;;;12.14;77.88;101016.06;5036959;28;45430;-74
2023/01/11 07:43:10;;;;;;;;;2.75;2.75;;;;;12.37;77.51;101056.50;5035283;28;45470;-73
2023/01/11 07:45:38;;;;;;;;;2.50;2.50;;;;;11.79;77.27;100963.47;5036950;28;45582;-75
2023/01/11 07:48:05;;;;;;;;;5.00;4.00;;;;;12.27;77.34;101069.88;5036340;28;45703;-75
2023/01/11 07:50:31;;;;;;;;;4.33;4.33;;;;;12.15;77.24;101065.72;5035246;28;45523;-74
2023/01/11 07:52:57;;;;;;;;;3.33;3.33;;;;;12.22;76.90;101077.50;5036451;28;45387;-73
2023/01/11 07:55:22;;;;;;;;;3.00;2.67;;;;;11.85;76.89;101027.69;5035673;28;45392;-73
2023/01/11 07:57:48;;;;;;;;;3.00;2.25;;;;;12.27;76.63;101107.19;5037336;28;46160;-75
2023/01/11 08:00:14;;;;;;;;;3.00;3.00;;;;;12.22;76.98;101096.16;5035616;28;45270;-73
2023/01/11 08:02:39;;;;;;;;;3.25;3.25;;;;;12.12;76.72;101100.66;5035589;28;45636;-73
2023/01/11 08:05:05;;;;;;;;;4.25;2.25;;;;;11.53;77.07;100995.22;5046380;28;45567;-73
2023/01/11 08:07:31;;;;;;;;;3.50;1.50;;;;;12.24;76.69;101114.66;5033072;28;47995;-73
2023/01/11 08:09:56;;;;;;;;;2.75;2.00;;;;;11.63;75.91;101020.00;5019672;28;45451;-71
2023/01/11 08:15:08;;;;;;;;;3.00;3.00;;;;;12.16;75.90;101126.03;5036780;28;45278;-75
2023/01/11 08:17:34;;;;;;;;;2.00;2.00;;;;;11.58;75.64;101032.88;5052655;28;45653;-74
2023/01/11 08:20:01;;;;;;;;;4.33;3.00;;;;;12.05;75.99;101115.56;5056064;28;45397;-73
2023/01/11 08:22:26;;;;;;;;;11.33;10.00;;;;;11.88;75.96;101088.66;5058537;28;45528;-74
2023/01/11 08:24:51;;;;;;;;;7.33;6.67;;;;;12.35;75.49;101170.44;5075112;28;46038;-73
2023/01/11 08:27:17;;;;;;;;;7.00;4.67;;;;;12.22;75.91;101149.47;5076210;27;46767;-73
2023/01/11 08:29:43;;;;;;;;;4.25;1.50;;;;;12.37;75.58;101177.31;5081081;28;45444;-73
2023/01/11 08:32:09;;;;;;;;;4.67;4.00;;;;;12.32;75.05;101171.59;5073126;27;45447;-74
2023/01/11 08:34:34;;;;;;;;;4.00;4.00;;;;;12.21;75.15;101153.06;5060512;28;45425;-74
2023/01/11 08:37:00;;;;;;;;;5.33;3.33;;;;;12.33;74.99;101173.25;5059720;28;46327;-74
2023/01/11 08:39:29;;;;;;;;;6.33;3.67;;;;;12.32;74.61;101176.91;5077978;28;45702;-74
2023/01/11 08:41:55;;;;;;;;;4.67;3.00;;;;;12.37;74.27;101187.97;5080208;27;45421;-76
2023/01/11 08:44:20;;;;;;;;;1.67;1.67;;;;;12.38;74.69;101207.47;5078332;28;45336;-74
2023/01/11 08:46:46;;;;;;;;;4.00;3.00;;;;;12.39;74.59;101195.84;5079683;27;45299;-76
2023/01/11 08:49:11;;;;;;;;;8.00;3.00;;;;;12.16;73.96;101166.00;5079171;27;45439;-74
2023/01/11 08:51:38;;;;;;;;;5.67;3.00;;;;;11.97;74.09;101148.22;5079195;27;45390;-77
2023/01/11 08:54:06;;;;;;;;;4.00;2.67;;;;;12.06;74.29;101150.06;5076520;27;45386;-72
2023/01/11 08:56:34;;;;;;;;;5.00;3.33;;;;;12.45;73.70;101209.44;5078493;28;45949;-74
2023/01/11 08:59:01;;;;;;;;;4.33;3.00;;;;;12.45;73.12;101204.13;5066916;28;45476;-76
2023/01/11 09:01:26;;;;;;;;;3.67;3.00;;;;;12.00;73.34;101117.78;5069686;27;45402;-72
2023/01/11 09:03:52;;;;;;;;;4.33;4.33;;;;;11.85;73.00;101074.78;5073731;28;45569;-72
2023/01/11 09:06:17;;;;;;;;;9.33;7.67;;;;;12.99;71.71;101217.66;5078460;28;51871;-75
2023/01/11 09:08:43;;;;;;;;;3.67;3.33;;;;;13.24;70.56;101217.00;5066525;27;45631;-75
2023/01/11 09:11:52;;;;;;;;;2.50;2.50;;;;;13.44;69.57;101204.38;5058817;28;45588;-74
2023/01/11 09:13:53;;;;;;;;;5.00;4.00;;;;;13.77;68.45;101172.59;5071806;28;45472;-76
2023/01/11 09:16:19;;;;;;;;;7.00;5.00;;;;;14.53;66.33;101218.31;5077673;28;45524;-75
2023/01/11 09:18:44;;;;;;;;;6.00;4.33;;;;;14.36;65.00;101182.56;5063039;28;45649;-75
2023/01/11 09:21:09;;;;;;;;;1.67;1.00;;;;;14.14;64.62;101183.06;5057655;28;45978;-74
2023/01/11 09:23:35;;;;;;;;;5.00;2.00;;;;;14.19;64.93;101218.19;5069058;28;45276;-77
2023/01/11 09:26:01;;;;;;;;;4.75;2.50;;;;;13.62;65.08;101159.81;5076843;28;45631;-74
2023/01/11 09:28:26;;;;;;;;;2.50;2.50;;;;;13.98;65.69;101237.25;5061314;28;45288;-73
2023/01/11 09:30:52;;;;;;;;;45.33;35.33;;;;;13.47;65.35;101173.84;5073719;28;45648;-75
2023/01/11 09:33:17;;;;;;;;;2.00;2.00;;;;;13.70;65.27;101239.19;5073255;27;45430;-74
2023/01/11 09:35:45;;;;;;;;;3.33;2.67;;;;;13.54;65.03;101229.16;5071698;28;47738;-74
2023/01/11 09:38:11;;;;;;;;;4.50;1.75;;;;;13.12;65.00;101180.78;5067481;27;45386;-75
2023/01/11 09:41:04;;;;;;;;;4.33;3.00;;;;;13.06;64.98;101190.22;5058505;28;45417;-72
2023/01/11 09:43:32;;;;;;;;;5.00;4.00;;;;;13.25;64.81;101250.72;5057251;28;45634;-76
2023/01/11 09:46:05;;;;;;;;;1.25;1.25;;;;;12.04;64.84;101079.22;5056951;28;48669;-80
2023/01/11 09:48:42;;;;;;;;;5.50;2.25;;;;;12.92;64.98;101228.09;5060185;28;45487;-74
2023/01/11 09:51:14;;;;;;;;;3.00;3.00;;;;;12.81;65.01;101209.56;5094543;27;45454;-75
2023/01/11 09:53:44;;;;;;;;;4.67;2.33;;;;;13.04;65.50;101274.97;5075358;27;45459;-74
2023/01/11 09:56:14;;;;;;;;;4.00;4.00;;;;;12.56;65.12;101210.25;5085037;27;47162;-73
2023/01/11 09:59:04;;;;;;;;;4.50;1.75;;;;;13.15;65.39;101302.44;5063816;28;45481;-73
2023/01/11 10:01:41;;;;;;;;;3.50;3.00;;;;;12.19;64.60;101165.72;5073435;28;45482;-75
2023/01/11 10:04:21;;;;;;;;;1.75;1.75;;;;;13.02;64.96;101318.81;5059943;27;45526;-72
2023/01/11 10:06:57;;;;;;;;;2.00;2.00;;;;;12.96;64.78;101314.88;5071836;27;46730;-73
2023/01/11 10:09:38;;;;;;;;;2.00;2.00;;;;;12.43;65.18;101254.09;5078276;28;45566;-74
2023/01/11 10:12:30;;;;;;;;;3.00;1.50;;;;;12.67;65.09;101298.13;5076797;28;45485;-73
2023/01/11 10:15:18;;;;;;;;;2.25;2.25;;;;;12.82;65.59;101327.84;5058674;28;45730;-74
2023/01/11 10:18:01;;;;;;;;;3.00;2.00;;;;;12.85;65.57;101327.56;5070548;28;47676;-73
2023/01/11 10:20:36;;;;;;;;;8.00;7.67;;;;;12.78;65.04;101324.59;5077688;27;45492;-76
2023/01/11 10:23:13;;;;;;;;;6.75;2.50;;;;;12.52;64.93;101278.19;5075539;28;45377;-74
2023/01/11 10:25:50;;;;;;;;;2.67;2.67;;;;;12.77;65.38;101322.94;5058432;28;45495;-74
2023/01/11 10:28:44;;;;;;;;;3.00;1.25;;;;;12.75;65.45;101332.91;5075073;27;47746;-74
2023/01/11 10:34:29;;;;;;;;;2.00;2.00;;;;;12.79;65.47;101335.13;5069682;27;45217;-75
2023/01/11 10:37:22;;;;;;;;;2.00;2.00;;;;;10.36;65.28;100958.97;5056475;28;45449;-76
2023/01/11 10:40:39;;;;;;;;;3.00;2.75;;;;;12.80;65.66;101335.97;5061633;28;45498;-75
2023/01/11 10:43:02;;;;;;;;;3.67;2.33;;;;;12.45;65.54;101284.13;5076376;28;45419;-75
2023/01/11 10:45:49;;;;;;;;;2.00;2.00;;;;;11.96;65.14;101196.34;5055980;28;45458;-73
2023/01/11 10:48:32;;;;;;;;;2.33;2.00;;;;;12.70;66.20;101335.16;5058381;28;45649;-74
2023/01/11 10:51:13;;;;;;;;;3.67;2.00;;;;;12.70;66.08;101329.84;5076963;28;45627;-75
2023/01/11 10:54:11;;;;;;;;;4.00;4.00;;;;;12.51;66.31;101300.53;5072826;27;45584;-76
2023/01/11 10:56:42;;;;;;;;;3.00;3.00;;;;;12.72;66.23;101343.88;5055561;28;45996;-74
2023/01/11 10:59:26;;;;;;;;;4.00;4.00;;;;;12.72;66.08;101349.19;5058360;28;45442;-73
2023/01/11 11:02:08;;;;;;;;;4.33;3.33;;;;;12.73;66.59;101353.56;5070724;27;46529;-77
2023/01/11 11:04:52;;;;;;;;;7.00;6.00;;;;;10.10;66.09;100920.59;5065265;27;45551;-75
2023/01/11 11:07:24;;;;;;;;;3.33;2.00;;;;;12.74;66.30;101368.56;5056329;28;45367;-77
2023/01/11 11:10:04;;;;;;;;;1.00;1.00;;;;;12.68;66.19;101359.31;5057580;28;45439;-75
2023/01/11 11:12:33;;;;;;;;;3.67;2.00;;;;;12.43;66.09;101320.75;5063457;28;46521;-76
2023/01/11 11:15:18;;;;;;;;;5.00;3.00;;;;;12.54;66.17;101340.25;5070075;28;45499;-77
2023/01/11 11:17:50;;;;;;;;;3.67;2.00;;;;;12.68;65.22;101358.47;5061442;28;45597;-77
2023/01/11 11:20:22;;;;;;;;;10.00;10.00;;;;;12.49;65.33;101335.34;5055667;28;45476;-75
2023/01/11 11:22:55;;;;;;;;;3.67;3.33;;;;;10.88;65.19;101039.38;5055010;28;47838;-76
2023/01/11 11:25:30;;;;;;;;;3.00;2.00;;;;;12.30;65.16;101279.38;5072761;27;45619;-74
2023/01/11 11:28:25;;;;;;;;;6.33;6.33;;;;;12.43;65.00;101318.09;5057520;28;45413;-75
2023/01/11 11:30:54;;;;;;;;;5.33;3.00;;;;;12.19;64.76;101253.69;5057831;28;45552;-77
2023/01/11 11:33:34;;;;;;;;;6.25;5.00;;;;;12.89;64.68;101376.97;5056652;28;47519;-77
2023/01/11 11:36:03;;;;;;;;;4.00;4.00;;;;;12.77;63.45;101358.44;5080192;27;45554;-74
2023/01/11 11:38:32;;;;;;;;;5.00;3.67;;;;;12.95;63.89;101379.91;5077376;28;45353;-74
2023/01/11 11:41:12;;;;;;;;;4.00;4.00;;;;;13.01;63.45;101382.03;5076360;28;45281;-73
2023/01/11 11:43:40;;;;;;;;;6.33;3.67;;;;;12.77;63.29;101338.94;5092569;27;45870;-76
2023/01/11 11:46:15;;;;;;;;;7.00;5.33;;;;;13.16;63.07;101386.88;5076365;28;46194;-76
2023/01/11 11:48:42;;;;;;;;;5.33;4.00;;;;;13.03;62.77;101358.69;5071180;28;45518;-74
2023/01/11 11:51:20;;;;;;;;;15.33;15.00;;;;;13.22;62.52;101379.19;5072048;28;45462;-74
2023/01/11 11:53:54;;;;;;;;;5.50;3.00;;;;;12.86;61.72;101318.56;5076115;27;45913;-76
2023/01/11 11:56:34;;;;;;;;;8.00;6.50;;;;;10.50;61.67;100928.50;5072330;28;45491;-75
2023/01/11 11:59:08;;;;;;;;;8.67;7.00;;;;;13.34;62.06;101386.00;5055686;28;45509;-76
2023/01/11 12:01:39;;;;;;;;;5.25;3.50;;;;;13.36;61.55;101392.03;5057045;28;45255;-75
2023/01/11 12:04:23;;;;;;;;;6.75;4.00;;;;;12.68;61.53;101273.13;5059775;28;46902;-74